createdAt,value
2023-03-05T00:02:17.792Z,60.18
2023-03-05T00:05:20.115Z,59.92
2023-03-05T00:08:22.460Z,59.61
2023-03-05T00:11:28.157Z,59.83
2023-03-05T00:14:30.495Z,59.92
2023-03-05T00:17:32.804Z,60.18
2023-03-05T00:20:36.120Z,60.04
2023-03-05T00:23:38.479Z,59.57
2023-03-05T00:26:41.104Z,59.37
2023-03-05T00:29:43.449Z,59.89
2023-03-05T00:32:45.770Z,60.14
2023-03-05T00:35:48.982Z,60.14
2023-03-05T00:38:52.032Z,59.86
2023-03-05T00:41:54.402Z,60.18
2023-03-05T00:44:56.778Z,60.43
2023-03-05T00:48:01.358Z,60.10
2023-03-05T00:51:04.044Z,59.87
2023-03-05T00:54:06.921Z,60.09
2023-03-05T00:57:09.321Z,60.44
2023-03-05T01:00:12.817Z,60.24
2023-03-05T01:03:15.252Z,60.71
2023-03-05T01:06:18.044Z,60.37
2023-03-05T01:09:21.688Z,60.17
2023-03-05T01:12:24.192Z,60.43
2023-03-05T01:15:26.664Z,60.49
2023-03-05T01:18:29.271Z,60.58
2023-03-05T01:21:31.753Z,60.29
2023-03-05T01:24:34.090Z,60.34
2023-03-05T01:27:36.404Z,60.36
2023-03-05T01:30:38.729Z,60.43
2023-03-05T01:33:41.097Z,60.54
2023-03-05T01:36:43.718Z,60.41
2023-03-05T01:39:46.033Z,60.12
2023-03-05T01:42:58.633Z,60.37
2023-03-05T01:46:13.164Z,60.40
2023-03-05T01:49:21.490Z,60.32
2023-03-05T01:52:25.106Z,60.15
2023-03-05T01:55:29.810Z,60.04
2023-03-05T01:58:32.180Z,59.75
2023-03-05T02:01:40.130Z,59.78
2023-03-05T02:05:29.526Z,60.02
2023-03-05T02:08:31.883Z,60.01
2023-03-05T02:11:34.794Z,60.20
2023-03-05T02:14:37.844Z,60.26
2023-03-05T02:17:40.525Z,60.08
2023-03-05T02:20:50.798Z,60.23
2023-03-05T02:23:53.108Z,59.90
2023-03-05T02:26:56.640Z,60.19
2023-03-05T02:29:58.988Z,60.15
2023-03-05T02:33:01.829Z,60.19
2023-03-05T02:36:04.746Z,60.32
2023-03-05T02:39:07.381Z,60.16
2023-03-05T02:42:09.740Z,60.04
2023-03-05T02:45:13.502Z,60.30
2023-03-05T02:48:16.000Z,59.86
2023-03-05T02:51:18.947Z,59.97
2023-03-05T02:54:22.453Z,60.03
2023-03-05T02:57:25.043Z,60.33
2023-03-05T03:00:28.487Z,59.90
2023-03-05T03:03:31.155Z,60.02
2023-03-05T03:06:33.516Z,59.73
2023-03-05T03:09:36.139Z,60.18
2023-03-05T03:12:43.360Z,59.88
2023-03-05T03:15:45.721Z,60.09
2023-03-05T03:18:48.983Z,60.20
2023-03-05T03:21:51.430Z,59.89
2023-03-05T03:24:53.773Z,60.02
2023-03-05T03:27:56.137Z,59.59
2023-03-05T03:30:58.526Z,59.91
2023-03-05T03:34:00.968Z,59.77
2023-03-05T03:37:03.344Z,60.13
2023-03-05T03:40:06.820Z,59.83
2023-03-05T03:43:09.559Z,59.91
2023-03-05T03:46:11.969Z,60.28
2023-03-05T03:49:20.117Z,59.93
2023-03-05T03:52:23.135Z,59.79
2023-03-05T03:55:25.449Z,59.86
2023-03-05T03:58:27.779Z,59.89
2023-03-05T04:01:30.132Z,60.18
2023-03-05T04:04:32.486Z,59.80
2023-03-05T04:07:34.872Z,59.95
2023-03-05T04:10:37.380Z,59.95
2023-03-05T04:13:39.682Z,59.81
2023-03-05T04:16:41.994Z,60.06
2023-03-05T04:19:44.521Z,60.09
2023-03-05T04:22:46.901Z,60.05
2023-03-05T04:25:49.279Z,59.91
2023-03-05T04:28:51.597Z,59.96
2023-03-05T04:31:53.918Z,59.71
2023-03-05T04:34:57.182Z,59.91
2023-03-05T04:37:59.519Z,60.24
2023-03-05T04:41:01.838Z,59.80
2023-03-05T04:44:04.284Z,59.88
2023-03-05T04:47:06.657Z,59.82
2023-03-05T04:50:09.670Z,59.94
2023-03-05T04:53:12.132Z,60.13
2023-03-05T04:56:14.448Z,59.34
2023-03-05T04:59:16.850Z,60.09
2023-03-05T05:02:19.201Z,59.91
2023-03-05T05:05:24.472Z,59.98
2023-03-05T05:08:27.565Z,59.47
2023-03-05T05:11:29.934Z,59.74
2023-03-05T05:14:34.099Z,59.69
2023-03-05T05:17:36.714Z,60.13
2023-03-05T05:20:39.299Z,60.06
2023-03-05T05:23:41.840Z,59.97
2023-03-05T05:26:44.170Z,59.87
2023-03-05T05:29:50.293Z,60.22
2023-03-05T05:32:52.677Z,59.87
2023-03-05T05:35:55.049Z,59.82
2023-03-05T05:38:57.425Z,59.95
2023-03-05T05:41:59.731Z,59.92
2023-03-05T05:45:03.122Z,59.47
2023-03-05T05:48:05.671Z,59.62
2023-03-05T05:51:10.438Z,59.53
2023-03-05T05:54:16.220Z,59.79
2023-03-05T05:57:18.527Z,59.68
2023-03-05T06:00:21.302Z,59.76
2023-03-05T06:03:23.834Z,59.70
2023-03-05T06:06:27.170Z,59.72
2023-03-05T06:09:29.974Z,59.43
2023-03-05T06:12:32.322Z,59.37
2023-03-05T06:15:34.681Z,59.49
2023-03-05T06:18:37.003Z,59.68
2023-03-05T06:21:39.550Z,59.34
2023-03-05T06:24:41.925Z,59.35
2023-03-05T06:27:44.274Z,59.48
2023-03-05T06:30:46.689Z,59.10
2023-03-05T06:33:49.836Z,59.33
2023-03-05T06:36:52.229Z,59.04
2023-03-05T06:39:54.586Z,59.29
2023-03-05T06:42:56.898Z,59.29
2023-03-05T06:46:07.448Z,58.72
2023-03-05T06:49:10.549Z,58.94
2023-03-05T06:52:12.958Z,59.26
2023-03-05T06:55:15.400Z,58.77
2023-03-05T06:58:17.773Z,59.04
2023-03-05T07:01:20.599Z,58.43
2023-03-05T07:04:24.482Z,59.00
2023-03-05T07:07:26.919Z,59.18
2023-03-05T07:10:29.276Z,58.66
2023-03-05T07:13:31.653Z,58.78
2023-03-05T07:16:35.635Z,59.01
2023-03-05T07:19:38.434Z,58.98
2023-03-05T07:22:40.833Z,58.99
2023-03-05T07:25:43.242Z,58.60
2023-03-05T07:28:46.121Z,59.01
2023-03-05T07:31:48.434Z,58.53
2023-03-05T07:34:50.763Z,59.21
2023-03-05T07:37:54.963Z,59.22
2023-03-05T07:40:57.516Z,58.83
2023-03-05T07:44:00.077Z,58.88
2023-03-05T07:47:02.462Z,57.78
2023-03-05T07:50:05.333Z,58.47
2023-03-05T07:53:07.945Z,58.87
2023-03-05T07:56:10.676Z,58.42
2023-03-05T07:59:13.867Z,58.65
2023-03-05T08:02:16.566Z,58.56
2023-03-05T08:05:19.128Z,58.66
2023-03-05T08:08:21.490Z,58.34
2023-03-05T08:11:24.066Z,58.46
2023-03-05T08:14:26.652Z,58.49
2023-03-05T08:17:29.008Z,58.33
2023-03-05T08:20:31.524Z,58.18
2023-03-05T08:23:34.622Z,58.53
2023-03-05T08:26:41.166Z,58.42
2023-03-05T08:29:43.595Z,58.45
2023-03-05T08:32:45.939Z,58.19
2023-03-05T08:35:48.371Z,58.23
2023-03-05T08:38:50.949Z,58.18
2023-03-05T08:41:53.341Z,58.19
2023-03-05T08:44:55.763Z,58.31
2023-03-05T08:47:58.271Z,57.83
2023-03-05T08:51:12.840Z,58.39
2023-03-05T08:54:15.236Z,58.08
2023-03-05T08:57:17.604Z,57.89
2023-03-05T09:00:20.323Z,57.94
2023-03-05T09:03:22.841Z,57.80
2023-03-05T09:06:26.077Z,58.09
2023-03-05T09:09:30.158Z,57.39
2023-03-05T09:12:32.566Z,56.62
2023-03-05T09:15:34.923Z,56.03
2023-03-05T09:18:37.441Z,55.54
2023-03-05T09:21:39.838Z,54.57
2023-03-05T09:24:43.509Z,53.66
2023-03-05T09:27:45.926Z,53.36
2023-03-05T09:30:48.350Z,52.85
2023-03-05T09:33:50.854Z,52.30
2023-03-05T09:36:53.246Z,52.65
2023-03-05T09:39:56.293Z,52.54
2023-03-05T09:43:14.605Z,52.00
2023-03-05T09:46:31.454Z,51.96
2023-03-05T09:49:47.901Z,52.13
2023-03-05T09:53:01.906Z,52.14
2023-03-05T09:56:21.303Z,51.95
2023-03-05T09:59:29.671Z,51.90
2023-03-05T10:02:35.720Z,50.80
2023-03-05T10:06:03.186Z,51.44
2023-03-05T10:09:11.632Z,52.13
2023-03-05T10:12:42.395Z,51.75
2023-03-05T10:15:52.158Z,51.60
2023-03-05T10:19:00.347Z,52.07
2023-03-05T10:22:19.657Z,52.17
2023-03-05T10:25:47.730Z,52.29
2023-03-05T10:29:03.426Z,51.87
2023-03-05T10:32:18.987Z,52.57
2023-03-05T10:35:46.109Z,52.45
2023-03-05T10:39:19.560Z,52.47
2023-03-05T10:42:31.419Z,52.14
2023-03-05T10:45:40.700Z,52.59
2023-03-05T10:49:17.048Z,52.56
2023-03-05T10:52:32.731Z,52.55
2023-03-05T10:55:35.143Z,52.07
2023-03-05T10:58:37.641Z,53.14
2023-03-05T11:01:40.233Z,52.97
2023-03-05T11:04:43.062Z,52.73
2023-03-05T11:07:45.448Z,53.20
2023-03-05T11:10:47.938Z,53.20
2023-03-05T11:14:05.232Z,53.09
2023-03-05T11:18:03.431Z,53.23
2023-03-05T11:21:28.624Z,53.61
2023-03-05T11:24:31.100Z,53.24
2023-03-05T11:27:39.037Z,52.83
2023-03-05T11:30:41.566Z,52.68
2023-03-05T11:34:26.149Z,53.76
2023-03-05T11:37:30.958Z,53.51
2023-03-05T11:40:37.522Z,53.99
2023-03-05T11:43:41.688Z,54.14
2023-03-05T11:46:48.053Z,53.84
2023-03-05T11:49:55.079Z,53.38
2023-03-05T11:53:12.429Z,53.69
2023-03-05T11:56:20.634Z,53.77
2023-03-05T11:59:33.765Z,53.27
2023-03-05T12:02:37.252Z,53.36
2023-03-05T12:05:42.727Z,53.82
2023-03-05T12:08:49.845Z,53.10
2023-03-05T12:11:56.747Z,54.07
2023-03-05T12:15:25.461Z,54.15
2023-03-05T12:18:33.944Z,54.04
2023-03-05T12:21:38.202Z,53.71
2023-03-05T12:24:40.918Z,53.72
2023-03-05T12:27:43.652Z,54.69
2023-03-05T12:30:46.189Z,54.40
2023-03-05T12:33:48.575Z,54.38
2023-03-05T12:36:53.253Z,54.46
2023-03-05T12:40:04.740Z,54.03
2023-03-05T12:43:28.344Z,54.25
2023-03-05T12:46:35.865Z,54.46
2023-03-05T12:49:39.635Z,54.43
2023-03-05T12:52:42.696Z,54.19
2023-03-05T12:55:48.042Z,54.43
2023-03-05T12:58:52.535Z,54.57
2023-03-05T13:02:03.073Z,54.47
2023-03-05T13:05:17.966Z,54.46
2023-03-05T13:08:28.857Z,54.72
2023-03-05T13:11:34.481Z,54.78
2023-03-05T13:14:41.387Z,53.87
2023-03-05T13:18:07.458Z,53.23
2023-03-05T13:21:17.839Z,52.80
2023-03-05T13:24:20.485Z,52.12
2023-03-05T13:27:30.975Z,51.55
2023-03-05T13:30:34.719Z,50.89
2023-03-05T13:33:37.808Z,50.04
2023-03-05T13:36:40.327Z,50.32
2023-03-05T13:39:54.590Z,49.65
2023-03-05T13:43:12.112Z,49.19
2023-03-05T13:46:32.728Z,48.86
2023-03-05T13:49:35.379Z,49.17
2023-03-05T13:52:38.798Z,49.26
2023-03-05T13:55:41.460Z,49.04
2023-03-05T13:58:49.555Z,48.89
2023-03-05T14:01:52.847Z,49.11
2023-03-05T14:04:56.002Z,49.36
2023-03-05T14:07:58.717Z,49.22
2023-03-05T14:11:12.521Z,49.09
2023-03-05T14:14:17.919Z,49.88
2023-03-05T14:17:22.643Z,50.55
2023-03-05T14:20:29.859Z,49.54
2023-03-05T14:23:35.179Z,50.29
2023-03-05T14:26:58.013Z,49.97
2023-03-05T14:30:03.667Z,50.53
2023-03-05T14:33:06.301Z,50.73
2023-03-05T14:36:09.929Z,50.85
2023-03-05T14:39:26.387Z,51.12
2023-03-05T14:42:38.788Z,50.72
2023-03-05T14:45:43.790Z,51.37
2023-03-05T14:48:47.031Z,51.57
2023-03-05T14:51:49.546Z,52.25
2023-03-05T14:54:53.065Z,52.06
2023-03-05T14:58:00.332Z,52.06
2023-03-05T15:01:02.981Z,52.39
2023-03-05T15:04:05.371Z,52.55
2023-03-05T15:07:14.102Z,52.40
2023-03-05T15:10:19.473Z,52.54
2023-03-05T15:13:22.027Z,53.08
2023-03-05T15:16:24.489Z,52.64
2023-03-05T15:19:27.045Z,53.01
2023-03-05T15:22:29.579Z,53.35
2023-03-05T15:25:32.276Z,52.88
2023-03-05T15:28:36.909Z,53.83
2023-03-05T15:31:40.589Z,53.78
2023-03-05T15:34:43.384Z,53.82
2023-03-05T15:37:45.756Z,53.33
2023-03-05T15:40:49.067Z,53.69
2023-03-05T15:43:51.852Z,53.56
2023-03-05T15:46:56.662Z,53.83
2023-03-05T15:49:59.179Z,54.31
2023-03-05T15:53:01.567Z,53.86
2023-03-05T15:56:04.272Z,54.31
2023-03-05T15:59:07.883Z,54.31
2023-03-05T16:02:10.472Z,54.30
2023-03-05T16:05:13.032Z,54.19
2023-03-05T16:08:15.689Z,54.28
2023-03-05T16:11:19.251Z,54.72
2023-03-05T16:14:23.605Z,54.54
2023-03-05T16:17:26.208Z,54.79
2023-03-05T16:20:29.670Z,54.97
2023-03-05T16:23:32.299Z,55.17
2023-03-05T16:26:36.428Z,55.17
2023-03-05T16:29:38.976Z,55.41
2023-03-05T16:32:41.954Z,54.30
2023-03-05T16:35:45.623Z,53.58
2023-03-05T16:38:49.919Z,52.93
2023-03-05T16:41:52.850Z,52.24
2023-03-05T16:44:55.432Z,51.50
2023-03-05T16:47:58.306Z,51.10
2023-03-05T16:51:00.664Z,50.07
2023-03-05T16:54:03.703Z,49.29
2023-03-05T16:57:06.245Z,49.80
2023-03-05T17:00:11.583Z,49.08
2023-03-05T17:03:14.238Z,49.65
2023-03-05T17:06:19.669Z,49.05
2023-03-05T17:09:25.592Z,49.40
2023-03-05T17:12:27.973Z,49.70
2023-03-05T17:15:30.564Z,49.68
2023-03-05T17:18:33.616Z,49.60
2023-03-05T17:21:36.301Z,50.01
2023-03-05T17:24:42.754Z,49.99
2023-03-05T17:27:45.472Z,50.43
2023-03-05T17:30:48.009Z,50.55
2023-03-05T17:33:50.924Z,50.36
2023-03-05T17:36:53.267Z,50.63
2023-03-05T17:39:56.364Z,50.82
2023-03-05T17:42:58.849Z,51.14
2023-03-05T17:46:02.018Z,50.38
2023-03-05T17:49:04.679Z,51.43
2023-03-05T17:52:07.312Z,51.41
2023-03-05T17:55:11.765Z,51.60
2023-03-05T17:58:14.205Z,51.68
2023-03-05T18:01:43.078Z,52.19
2023-03-05T18:04:47.927Z,52.31
2023-03-05T18:07:51.462Z,52.52
2023-03-05T18:10:54.472Z,52.43
2023-03-05T18:13:57.116Z,52.45
2023-03-05T18:17:00.389Z,53.11
2023-03-05T18:20:04.319Z,52.88
2023-03-05T18:23:06.904Z,53.27
2023-03-05T18:26:09.435Z,53.41
2023-03-05T18:29:11.932Z,53.63
2023-03-05T18:32:14.498Z,53.88
2023-03-05T18:35:17.963Z,53.85
2023-03-05T18:38:25.395Z,53.84
2023-03-05T18:41:28.447Z,54.19
2023-03-05T18:44:31.076Z,54.19
2023-03-05T18:47:34.006Z,54.26
2023-03-05T18:50:36.543Z,54.14
2023-03-05T18:53:39.239Z,54.21
2023-03-05T18:56:42.215Z,53.77
2023-03-05T18:59:44.810Z,53.97
2023-03-05T19:02:47.481Z,54.06
2023-03-05T19:05:51.225Z,54.35
2023-03-05T19:09:08.738Z,54.46
2023-03-05T19:12:14.459Z,53.89
2023-03-05T19:15:17.355Z,55.08
2023-03-05T19:18:28.054Z,54.99
2023-03-05T19:21:59.891Z,55.56
2023-03-05T19:25:02.947Z,55.73
2023-03-05T19:28:05.486Z,55.90
2023-03-05T19:31:08.630Z,55.90
2023-03-05T19:34:11.245Z,56.11
2023-03-05T19:37:14.238Z,55.34
2023-03-05T19:40:16.949Z,54.65
2023-03-05T19:43:19.396Z,53.72
2023-03-05T19:46:22.090Z,52.98
2023-03-05T19:49:24.601Z,52.12
2023-03-05T19:52:27.706Z,51.17
2023-03-05T19:55:30.249Z,50.63
2023-03-05T19:58:34.413Z,50.47
2023-03-05T20:01:37.380Z,50.09
2023-03-05T20:04:41.512Z,49.50
2023-03-05T20:07:44.086Z,49.64
2023-03-05T20:10:46.640Z,49.97
2023-03-05T20:13:49.575Z,49.57
2023-03-05T20:16:52.208Z,49.67
2023-03-05T20:19:58.969Z,49.57
2023-03-05T20:23:02.057Z,50.32
2023-03-05T20:26:06.767Z,49.84
2023-03-05T20:29:09.637Z,50.30
2023-03-05T20:32:12.268Z,50.42
2023-03-05T20:35:17.533Z,50.94
2023-03-05T20:38:21.670Z,50.48
2023-03-05T20:41:24.382Z,51.06
2023-03-05T20:44:26.922Z,51.20
2023-03-05T20:47:47.062Z,51.08
2023-03-05T20:50:49.729Z,51.37
2023-03-05T20:53:54.313Z,51.41
2023-03-05T20:56:56.896Z,51.13
2023-03-05T21:00:00.463Z,51.71
2023-03-05T21:03:03.193Z,52.14
2023-03-05T21:06:06.425Z,52.30
2023-03-05T21:09:08.960Z,52.52
2023-03-05T21:12:11.521Z,52.53
2023-03-05T21:15:16.726Z,52.93
2023-03-05T21:18:19.279Z,52.96
2023-03-05T21:21:21.641Z,53.05
2023-03-05T21:25:25.220Z,53.51
2023-03-05T21:28:28.832Z,53.13
2023-03-05T21:31:31.262Z,53.60
2023-03-05T21:34:33.881Z,53.85
2023-03-05T21:37:42.449Z,53.88
2023-03-05T21:40:47.398Z,53.95
2023-03-05T21:43:49.861Z,53.97
2023-03-05T21:46:52.286Z,53.91
2023-03-05T21:49:54.783Z,54.19
2023-03-05T21:52:58.980Z,54.37
2023-03-05T21:56:25.474Z,54.30
2023-03-05T21:59:28.011Z,54.54
2023-03-05T22:02:30.397Z,54.58
2023-03-05T22:05:32.720Z,54.18
2023-03-05T22:08:35.052Z,54.04
2023-03-05T22:11:37.462Z,54.19
2023-03-05T22:14:39.828Z,54.72
2023-03-05T22:17:42.122Z,54.90
2023-03-05T22:20:44.990Z,54.65
2023-03-05T22:23:47.758Z,55.16
2023-03-05T22:26:50.103Z,55.44
2023-03-05T22:29:52.458Z,55.74
2023-03-05T22:32:54.885Z,55.89
2023-03-05T22:35:57.393Z,54.73
2023-03-05T22:38:59.758Z,54.10
2023-03-05T22:42:02.170Z,53.75
2023-03-05T22:45:05.072Z,52.80
2023-03-05T22:48:11.086Z,52.33
2023-03-05T22:51:13.826Z,51.31
2023-03-05T22:54:16.201Z,50.87
2023-03-05T22:57:18.722Z,49.98
2023-03-05T23:00:23.745Z,49.55
2023-03-05T23:03:26.696Z,49.69
2023-03-05T23:06:29.260Z,49.55
2023-03-05T23:09:31.609Z,49.62
2023-03-05T23:12:36.030Z,49.38
2023-03-05T23:15:39.206Z,48.63
2023-03-05T23:18:41.538Z,49.21
2023-03-05T23:21:43.887Z,49.93
2023-03-05T23:24:46.866Z,50.22
2023-03-05T23:27:49.832Z,50.41
2023-03-05T23:30:52.192Z,50.47
2023-03-05T23:33:54.558Z,50.69
2023-03-05T23:36:56.936Z,50.23
2023-03-05T23:39:59.676Z,50.93
2023-03-05T23:43:02.436Z,51.18
2023-03-05T23:46:10.792Z,51.09
2023-03-05T23:49:13.144Z,51.19
2023-03-05T23:52:15.518Z,51.64
2023-03-05T23:55:23.010Z,51.89
2023-03-05T23:58:25.639Z,52.28
